sensor_id;sensor_type;location;lat;lon;timestamp;P1;durP1;ratioP1;P2;durP2;ratioP2
28176;SDS011;15461;41.652;9.378;2023-07-20T00:00:08;24.05;;;8.43;;
28176;SDS011;15461;41.652;9.378;2023-07-20T00:02:41;22.70;;;7.90;;
28176;SDS011;15461;41.652;9.378;2023-07-20T00:05:06;31.17;;;8.82;;
28176;SDS011;15461;41.652;9.378;2023-07-20T00:07:32;21.88;;;8.23;;
28176;SDS011;15461;41.652;9.378;2023-07-20T00:09:58;22.88;;;7.82;;
28176;SDS011;15461;41.652;9.378;2023-07-20T00:12:25;29.83;;;8.73;;
28176;SDS011;15461;41.652;9.378;2023-07-20T00:14:50;27.40;;;7.72;;
28176;SDS011;15461;41.652;9.378;2023-07-20T00:17:18;21.98;;;7.47;;
28176;SDS011;15461;41.652;9.378;2023-07-20T00:19:45;20.08;;;7.47;;
28176;SDS011;15461;41.652;9.378;2023-07-20T00:22:11;22.48;;;7.63;;
28176;SDS011;15461;41.652;9.378;2023-07-20T00:24:38;23.00;;;7.28;;
28176;SDS011;15461;41.652;9.378;2023-07-20T00:27:04;25.65;;;7.20;;
28176;SDS011;15461;41.652;9.378;2023-07-20T00:29:30;29.58;;;6.95;;
28176;SDS011;15461;41.652;9.378;2023-07-20T00:31:56;27.00;;;6.90;;
28176;SDS011;15461;41.652;9.378;2023-07-20T00:34:22;22.48;;;7.07;;
28176;SDS011;15461;41.652;9.378;2023-07-20T00:36:48;21.80;;;6.90;;
28176;SDS011;15461;41.652;9.378;2023-07-20T00:39:14;25.35;;;7.20;;
28176;SDS011;15461;41.652;9.378;2023-07-20T00:41:40;24.40;;;6.03;;
28176;SDS011;15461;41.652;9.378;2023-07-20T00:44:06;18.45;;;6.35;;
28176;SDS011;15461;41.652;9.378;2023-07-20T00:46:32;19.33;;;6.55;;
28176;SDS011;15461;41.652;9.378;2023-07-20T00:48:59;32.72;;;6.72;;
28176;SDS011;15461;41.652;9.378;2023-07-20T00:51:26;18.30;;;6.68;;
28176;SDS011;15461;41.652;9.378;2023-07-20T00:53:52;19.75;;;7.07;;
28176;SDS011;15461;41.652;9.378;2023-07-20T00:56:18;23.98;;;6.85;;
28176;SDS011;15461;41.652;9.378;2023-07-20T00:58:45;18.13;;;6.35;;
28176;SDS011;15461;41.652;9.378;2023-07-20T01:01:11;20.33;;;6.72;;
28176;SDS011;15461;41.652;9.378;2023-07-20T01:03:37;22.88;;;8.18;;
28176;SDS011;15461;41.652;9.378;2023-07-20T01:06:09;26.15;;;8.48;;
28176;SDS011;15461;41.652;9.378;2023-07-20T01:11:32;21.65;;;8.48;;
28176;SDS011;15461;41.652;9.378;2023-07-20T01:16:38;20.48;;;8.05;;
28176;SDS011;15461;41.652;9.378;2023-07-20T01:19:04;23.73;;;8.55;;
28176;SDS011;15461;41.652;9.378;2023-07-20T01:21:33;20.02;;;8.18;;
28176;SDS011;15461;41.652;9.378;2023-07-20T01:34:40;20.13;;;7.55;;
28176;SDS011;15461;41.652;9.378;2023-07-20T01:37:06;22.60;;;7.93;;
28176;SDS011;15461;41.652;9.378;2023-07-20T01:39:33;21.77;;;8.70;;
28176;SDS011;15461;41.652;9.378;2023-07-20T01:42:00;22.67;;;8.63;;
28176;SDS011;15461;41.652;9.378;2023-07-20T01:44:27;18.38;;;8.95;;
28176;SDS011;15461;41.652;9.378;2023-07-20T01:46:54;20.27;;;8.68;;
28176;SDS011;15461;41.652;9.378;2023-07-20T01:49:20;26.02;;;9.82;;
28176;SDS011;15461;41.652;9.378;2023-07-20T01:51:45;19.33;;;9.50;;
28176;SDS011;15461;41.652;9.378;2023-07-20T01:54:11;17.98;;;9.38;;
28176;SDS011;15461;41.652;9.378;2023-07-20T01:56:37;21.00;;;9.90;;
28176;SDS011;15461;41.652;9.378;2023-07-20T01:59:04;25.27;;;10.23;;
28176;SDS011;15461;41.652;9.378;2023-07-20T02:01:30;24.10;;;10.60;;
28176;SDS011;15461;41.652;9.378;2023-07-20T02:03:55;26.50;;;10.82;;
28176;SDS011;15461;41.652;9.378;2023-07-20T02:06:21;28.33;;;10.18;;
28176;SDS011;15461;41.652;9.378;2023-07-20T02:08:47;24.88;;;9.65;;
28176;SDS011;15461;41.652;9.378;2023-07-20T02:11:13;22.05;;;9.27;;
28176;SDS011;15461;41.652;9.378;2023-07-20T02:13:39;19.92;;;8.60;;
28176;SDS011;15461;41.652;9.378;2023-07-20T02:16:05;18.02;;;8.80;;
28176;SDS011;15461;41.652;9.378;2023-07-20T02:18:31;19.02;;;8.23;;
28176;SDS011;15461;41.652;9.378;2023-07-20T02:20:57;18.70;;;8.35;;
28176;SDS011;15461;41.652;9.378;2023-07-20T02:23:23;21.20;;;8.00;;
28176;SDS011;15461;41.652;9.378;2023-07-20T02:25:49;16.52;;;7.88;;
28176;SDS011;15461;41.652;9.378;2023-07-20T02:28:14;22.95;;;8.50;;
28176;SDS011;15461;41.652;9.378;2023-07-20T02:30:40;22.45;;;7.88;;
28176;SDS011;15461;41.652;9.378;2023-07-20T02:33:07;25.38;;;8.60;;
28176;SDS011;15461;41.652;9.378;2023-07-20T02:35:33;23.38;;;8.70;;
28176;SDS011;15461;41.652;9.378;2023-07-20T02:37:58;21.40;;;7.63;;
28176;SDS011;15461;41.652;9.378;2023-07-20T02:40:24;20.73;;;8.50;;
28176;SDS011;15461;41.652;9.378;2023-07-20T02:42:50;23.10;;;8.65;;
28176;SDS011;15461;41.652;9.378;2023-07-20T02:45:16;20.13;;;8.93;;
28176;SDS011;15461;41.652;9.378;2023-07-20T02:47:42;22.33;;;8.98;;
28176;SDS011;15461;41.652;9.378;2023-07-20T02:50:08;21.30;;;8.73;;
28176;SDS011;15461;41.652;9.378;2023-07-20T02:52:34;25.20;;;8.82;;
28176;SDS011;15461;41.652;9.378;2023-07-20T02:55:00;26.58;;;9.30;;
28176;SDS011;15461;41.652;9.378;2023-07-20T02:57:26;23.65;;;9.40;;
28176;SDS011;15461;41.652;9.378;2023-07-20T02:59:52;19.30;;;8.57;;
28176;SDS011;15461;41.652;9.378;2023-07-20T03:02:18;24.00;;;8.60;;
28176;SDS011;15461;41.652;9.378;2023-07-20T03:04:44;25.48;;;8.93;;
28176;SDS011;15461;41.652;9.378;2023-07-20T03:07:10;22.30;;;8.80;;
28176;SDS011;15461;41.652;9.378;2023-07-20T03:09:36;17.70;;;8.55;;
28176;SDS011;15461;41.652;9.378;2023-07-20T03:12:02;21.27;;;9.23;;
28176;SDS011;15461;41.652;9.378;2023-07-20T03:14:30;21.80;;;8.75;;
28176;SDS011;15461;41.652;9.378;2023-07-20T03:16:57;15.73;;;8.38;;
28176;SDS011;15461;41.652;9.378;2023-07-20T03:19:23;19.92;;;8.48;;
28176;SDS011;15461;41.652;9.378;2023-07-20T03:21:49;17.10;;;8.75;;
28176;SDS011;15461;41.652;9.378;2023-07-20T03:24:15;19.33;;;9.40;;
28176;SDS011;15461;41.652;9.378;2023-07-20T03:26:41;23.38;;;8.50;;
28176;SDS011;15461;41.652;9.378;2023-07-20T03:29:07;19.60;;;8.90;;
28176;SDS011;15461;41.652;9.378;2023-07-20T03:31:33;17.98;;;8.65;;
28176;SDS011;15461;41.652;9.378;2023-07-20T03:33:59;22.05;;;8.48;;
28176;SDS011;15461;41.652;9.378;2023-07-20T03:36:25;23.05;;;9.43;;
28176;SDS011;15461;41.652;9.378;2023-07-20T03:38:51;19.30;;;9.13;;
28176;SDS011;15461;41.652;9.378;2023-07-20T03:41:17;17.90;;;9.65;;
28176;SDS011;15461;41.652;9.378;2023-07-20T03:43:45;20.35;;;12.30;;
28176;SDS011;15461;41.652;9.378;2023-07-20T03:46:11;23.67;;;12.20;;
28176;SDS011;15461;41.652;9.378;2023-07-20T03:48:38;31.08;;;13.23;;
28176;SDS011;15461;41.652;9.378;2023-07-20T03:51:03;24.17;;;12.68;;
28176;SDS011;15461;41.652;9.378;2023-07-20T03:53:29;28.25;;;13.93;;
28176;SDS011;15461;41.652;9.378;2023-07-20T03:55:55;28.08;;;12.75;;
28176;SDS011;15461;41.652;9.378;2023-07-20T03:58:21;27.35;;;13.45;;
28176;SDS011;15461;41.652;9.378;2023-07-20T04:00:48;28.95;;;12.20;;
28176;SDS011;15461;41.652;9.378;2023-07-20T04:03:18;21.80;;;11.77;;
28176;SDS011;15461;41.652;9.378;2023-07-20T04:05:45;30.20;;;12.93;;
28176;SDS011;15461;41.652;9.378;2023-07-20T04:08:12;25.55;;;12.35;;
28176;SDS011;15461;41.652;9.378;2023-07-20T04:10:38;25.10;;;11.95;;
28176;SDS011;15461;41.652;9.378;2023-07-20T04:13:04;26.58;;;11.93;;
28176;SDS011;15461;41.652;9.378;2023-07-20T04:15:31;23.83;;;10.90;;
28176;SDS011;15461;41.652;9.378;2023-07-20T04:17:57;22.92;;;11.48;;
28176;SDS011;15461;41.652;9.378;2023-07-20T04:20:23;33.00;;;12.43;;
28176;SDS011;15461;41.652;9.378;2023-07-20T04:22:49;91.13;;;15.60;;
28176;SDS011;15461;41.652;9.378;2023-07-20T04:25:16;49.47;;;12.98;;
28176;SDS011;15461;41.652;9.378;2023-07-20T04:27:45;21.38;;;10.30;;
28176;SDS011;15461;41.652;9.378;2023-07-20T04:30:11;24.65;;;11.20;;
28176;SDS011;15461;41.652;9.378;2023-07-20T04:32:38;23.00;;;10.15;;
28176;SDS011;15461;41.652;9.378;2023-07-20T04:35:11;21.63;;;10.60;;
28176;SDS011;15461;41.652;9.378;2023-07-20T04:37:43;15.85;;;9.93;;
28176;SDS011;15461;41.652;9.378;2023-07-20T04:40:15;26.23;;;11.45;;
28176;SDS011;15461;41.652;9.378;2023-07-20T04:42:41;26.92;;;10.98;;
28176;SDS011;15461;41.652;9.378;2023-07-20T04:45:08;25.13;;;10.00;;
28176;SDS011;15461;41.652;9.378;2023-07-20T04:47:35;21.45;;;9.77;;
28176;SDS011;15461;41.652;9.378;2023-07-20T04:50:01;22.63;;;10.10;;
28176;SDS011;15461;41.652;9.378;2023-07-20T04:52:29;23.08;;;10.05;;
28176;SDS011;15461;41.652;9.378;2023-07-20T04:54:55;27.73;;;9.38;;
28176;SDS011;15461;41.652;9.378;2023-07-20T04:57:23;27.80;;;9.27;;
28176;SDS011;15461;41.652;9.378;2023-07-20T04:59:49;22.95;;;8.73;;
28176;SDS011;15461;41.652;9.378;2023-07-20T05:02:15;21.40;;;9.00;;
28176;SDS011;15461;41.652;9.378;2023-07-20T05:04:41;17.13;;;8.55;;
28176;SDS011;15461;41.652;9.378;2023-07-20T05:07:07;18.92;;;9.30;;
28176;SDS011;15461;41.652;9.378;2023-07-20T05:09:33;22.15;;;9.93;;
28176;SDS011;15461;41.652;9.378;2023-07-20T05:11:59;23.88;;;9.48;;
28176;SDS011;15461;41.652;9.378;2023-07-20T05:14:25;20.67;;;9.23;;
28176;SDS011;15461;41.652;9.378;2023-07-20T05:16:52;24.55;;;9.27;;
28176;SDS011;15461;41.652;9.378;2023-07-20T05:19:18;21.80;;;9.93;;
28176;SDS011;15461;41.652;9.378;2023-07-20T05:21:44;25.85;;;10.30;;
28176;SDS011;15461;41.652;9.378;2023-07-20T05:24:10;26.92;;;11.48;;
28176;SDS011;15461;41.652;9.378;2023-07-20T05:26:36;23.88;;;10.90;;
28176;SDS011;15461;41.652;9.378;2023-07-20T05:29:03;27.98;;;11.23;;
28176;SDS011;15461;41.652;9.378;2023-07-20T05:31:29;24.33;;;10.95;;
28176;SDS011;15461;41.652;9.378;2023-07-20T05:33:55;37.85;;;11.10;;
28176;SDS011;15461;41.652;9.378;2023-07-20T05:36:21;25.90;;;10.00;;
28176;SDS011;15461;41.652;9.378;2023-07-20T05:38:47;24.42;;;10.40;;
28176;SDS011;15461;41.652;9.378;2023-07-20T05:41:14;25.92;;;10.63;;
28176;SDS011;15461;41.652;9.378;2023-07-20T05:43:40;27.13;;;10.25;;
28176;SDS011;15461;41.652;9.378;2023-07-20T05:46:07;26.08;;;9.77;;
28176;SDS011;15461;41.652;9.378;2023-07-20T05:48:33;23.42;;;10.57;;
28176;SDS011;15461;41.652;9.378;2023-07-20T05:50:59;39.13;;;11.38;;
28176;SDS011;15461;41.652;9.378;2023-07-20T05:53:25;36.47;;;11.35;;
28176;SDS011;15461;41.652;9.378;2023-07-20T05:55:54;34.40;;;11.43;;
28176;SDS011;15461;41.652;9.378;2023-07-20T05:58:20;21.77;;;10.35;;
28176;SDS011;15461;41.652;9.378;2023-07-20T06:00:48;22.70;;;10.68;;
28176;SDS011;15461;41.652;9.378;2023-07-20T06:03:14;26.02;;;11.00;;
28176;SDS011;15461;41.652;9.378;2023-07-20T06:05:43;22.88;;;10.60;;
28176;SDS011;15461;41.652;9.378;2023-07-20T06:08:10;29.38;;;10.63;;
28176;SDS011;15461;41.652;9.378;2023-07-20T06:10:37;26.35;;;11.10;;
28176;SDS011;15461;41.652;9.378;2023-07-20T06:13:03;35.28;;;10.85;;
28176;SDS011;15461;41.652;9.378;2023-07-20T06:15:33;28.30;;;10.68;;
28176;SDS011;15461;41.652;9.378;2023-07-20T06:18:04;32.00;;;11.23;;
28176;SDS011;15461;41.652;9.378;2023-07-20T06:20:30;27.63;;;10.88;;
28176;SDS011;15461;41.652;9.378;2023-07-20T06:22:56;28.85;;;10.23;;
28176;SDS011;15461;41.652;9.378;2023-07-20T06:25:22;20.08;;;10.48;;
28176;SDS011;15461;41.652;9.378;2023-07-20T06:27:48;24.98;;;10.40;;
28176;SDS011;15461;41.652;9.378;2023-07-20T06:30:16;25.45;;;11.52;;
28176;SDS011;15461;41.652;9.378;2023-07-20T06:32:42;25.45;;;11.32;;
28176;SDS011;15461;41.652;9.378;2023-07-20T06:35:08;25.67;;;11.30;;
28176;SDS011;15461;41.652;9.378;2023-07-20T06:37:34;24.17;;;10.40;;
28176;SDS011;15461;41.652;9.378;2023-07-20T06:40:02;23.55;;;10.50;;
28176;SDS011;15461;41.652;9.378;2023-07-20T06:42:29;25.60;;;11.00;;
28176;SDS011;15461;41.652;9.378;2023-07-20T06:44:55;21.92;;;10.15;;
28176;SDS011;15461;41.652;9.378;2023-07-20T06:47:22;28.08;;;10.77;;
28176;SDS011;15461;41.652;9.378;2023-07-20T06:49:48;23.55;;;10.35;;
28176;SDS011;15461;41.652;9.378;2023-07-20T06:52:14;26.38;;;9.98;;
28176;SDS011;15461;41.652;9.378;2023-07-20T06:54:40;29.55;;;10.65;;
28176;SDS011;15461;41.652;9.378;2023-07-20T06:57:05;22.70;;;10.07;;
28176;SDS011;15461;41.652;9.378;2023-07-20T06:59:31;25.67;;;10.25;;
28176;SDS011;15461;41.652;9.378;2023-07-20T07:01:57;26.98;;;10.60;;
28176;SDS011;15461;41.652;9.378;2023-07-20T07:04:23;30.63;;;10.77;;
28176;SDS011;15461;41.652;9.378;2023-07-20T07:06:49;27.92;;;10.13;;
28176;SDS011;15461;41.652;9.378;2023-07-20T07:09:15;23.27;;;10.38;;
28176;SDS011;15461;41.652;9.378;2023-07-20T07:11:40;22.90;;;10.55;;
28176;SDS011;15461;41.652;9.378;2023-07-20T07:14:06;27.35;;;10.45;;
28176;SDS011;15461;41.652;9.378;2023-07-20T07:16:32;22.77;;;10.00;;
28176;SDS011;15461;41.652;9.378;2023-07-20T07:18:58;27.85;;;10.48;;
28176;SDS011;15461;41.652;9.378;2023-07-20T07:21:24;28.80;;;9.98;;
28176;SDS011;15461;41.652;9.378;2023-07-20T07:23:51;27.67;;;10.40;;
28176;SDS011;15461;41.652;9.378;2023-07-20T07:26:19;24.77;;;9.55;;
28176;SDS011;15461;41.652;9.378;2023-07-20T07:28:45;24.17;;;9.50;;
28176;SDS011;15461;41.652;9.378;2023-07-20T07:31:11;32.03;;;9.57;;
28176;SDS011;15461;41.652;9.378;2023-07-20T07:33:37;24.85;;;9.48;;
28176;SDS011;15461;41.652;9.378;2023-07-20T07:36:03;21.48;;;9.02;;
28176;SDS011;15461;41.652;9.378;2023-07-20T07:38:29;19.30;;;9.02;;
28176;SDS011;15461;41.652;9.378;2023-07-20T07:40:55;20.88;;;9.57;;
28176;SDS011;15461;41.652;9.378;2023-07-20T07:43:20;25.25;;;9.82;;
28176;SDS011;15461;41.652;9.378;2023-07-20T07:45:46;25.38;;;10.77;;
28176;SDS011;15461;41.652;9.378;2023-07-20T07:48:12;22.02;;;10.20;;
28176;SDS011;15461;41.652;9.378;2023-07-20T07:50:39;23.33;;;10.60;;
28176;SDS011;15461;41.652;9.378;2023-07-20T07:53:05;24.25;;;10.23;;
28176;SDS011;15461;41.652;9.378;2023-07-20T07:55:32;26.63;;;10.40;;
28176;SDS011;15461;41.652;9.378;2023-07-20T07:57:58;25.70;;;10.23;;
28176;SDS011;15461;41.652;9.378;2023-07-20T08:00:24;23.23;;;10.10;;
28176;SDS011;15461;41.652;9.378;2023-07-20T08:02:50;21.15;;;10.00;;
28176;SDS011;15461;41.652;9.378;2023-07-20T08:05:16;22.67;;;10.25;;
28176;SDS011;15461;41.652;9.378;2023-07-20T08:07:42;27.00;;;9.82;;
28176;SDS011;15461;41.652;9.378;2023-07-20T08:10:08;31.40;;;10.98;;
28176;SDS011;15461;41.652;9.378;2023-07-20T08:12:35;27.92;;;10.23;;
28176;SDS011;15461;41.652;9.378;2023-07-20T08:15:01;22.50;;;9.98;;
28176;SDS011;15461;41.652;9.378;2023-07-20T08:17:27;25.30;;;9.75;;
28176;SDS011;15461;41.652;9.378;2023-07-20T08:19:53;24.55;;;9.80;;
28176;SDS011;15461;41.652;9.378;2023-07-20T08:22:19;24.45;;;9.90;;
28176;SDS011;15461;41.652;9.378;2023-07-20T08:24:45;40.05;;;9.63;;
28176;SDS011;15461;41.652;9.378;2023-07-20T08:27:10;25.92;;;9.80;;
28176;SDS011;15461;41.652;9.378;2023-07-20T08:29:37;23.90;;;9.55;;
28176;SDS011;15461;41.652;9.378;2023-07-20T08:32:03;24.13;;;9.32;;
28176;SDS011;15461;41.652;9.378;2023-07-20T08:34:30;29.42;;;10.25;;
28176;SDS011;15461;41.652;9.378;2023-07-20T08:36:56;23.25;;;9.60;;
28176;SDS011;15461;41.652;9.378;2023-07-20T08:39:23;23.85;;;9.82;;
28176;SDS011;15461;41.652;9.378;2023-07-20T08:41:50;28.23;;;10.02;;
28176;SDS011;15461;41.652;9.378;2023-07-20T08:44:19;20.70;;;9.57;;
28176;SDS011;15461;41.652;9.378;2023-07-20T08:46:45;24.15;;;9.18;;
28176;SDS011;15461;41.652;9.378;2023-07-20T08:49:12;21.52;;;9.35;;
28176;SDS011;15461;41.652;9.378;2023-07-20T08:51:41;26.25;;;9.35;;
28176;SDS011;15461;41.652;9.378;2023-07-20T08:54:07;26.85;;;9.15;;
28176;SDS011;15461;41.652;9.378;2023-07-20T08:56:37;21.08;;;8.88;;
28176;SDS011;15461;41.652;9.378;2023-07-20T08:59:04;20.63;;;9.07;;
28176;SDS011;15461;41.652;9.378;2023-07-20T09:01:31;23.33;;;8.85;;
28176;SDS011;15461;41.652;9.378;2023-07-20T09:03:57;21.08;;;9.65;;
28176;SDS011;15461;41.652;9.378;2023-07-20T09:06:23;22.10;;;9.55;;
28176;SDS011;15461;41.652;9.378;2023-07-20T09:08:49;22.15;;;8.85;;
28176;SDS011;15461;41.652;9.378;2023-07-20T09:11:15;17.55;;;8.95;;
28176;SDS011;15461;41.652;9.378;2023-07-20T09:13:40;26.55;;;9.60;;
28176;SDS011;15461;41.652;9.378;2023-07-20T09:16:06;32.00;;;9.90;;
28176;SDS011;15461;41.652;9.378;2023-07-20T09:18:32;24.40;;;9.60;;
28176;SDS011;15461;41.652;9.378;2023-07-20T09:21:03;21.95;;;9.73;;
28176;SDS011;15461;41.652;9.378;2023-07-20T09:23:33;23.27;;;9.32;;
28176;SDS011;15461;41.652;9.378;2023-07-20T09:26:00;21.48;;;9.55;;
28176;SDS011;15461;41.652;9.378;2023-07-20T09:28:41;19.08;;;8.90;;
28176;SDS011;15461;41.652;9.378;2023-07-20T09:31:18;24.02;;;10.05;;
28176;SDS011;15461;41.652;9.378;2023-07-20T09:33:45;24.42;;;9.73;;
28176;SDS011;15461;41.652;9.378;2023-07-20T09:36:12;23.35;;;9.13;;
28176;SDS011;15461;41.652;9.378;2023-07-20T09:38:38;28.02;;;9.48;;
28176;SDS011;15461;41.652;9.378;2023-07-20T09:41:07;21.95;;;9.27;;
28176;SDS011;15461;41.652;9.378;2023-07-20T09:43:36;29.30;;;9.38;;
28176;SDS011;15461;41.652;9.378;2023-07-20T09:46:02;24.83;;;9.07;;
28176;SDS011;15461;41.652;9.378;2023-07-20T09:48:29;26.08;;;9.70;;
28176;SDS011;15461;41.652;9.378;2023-07-20T09:50:55;26.75;;;10.52;;
28176;SDS011;15461;41.652;9.378;2023-07-20T09:53:21;27.40;;;9.52;;
28176;SDS011;15461;41.652;9.378;2023-07-20T09:55:50;18.48;;;9.05;;
28176;SDS011;15461;41.652;9.378;2023-07-20T09:58:18;20.85;;;9.00;;
28176;SDS011;15461;41.652;9.378;2023-07-20T10:00:45;24.85;;;9.20;;
28176;SDS011;15461;41.652;9.378;2023-07-20T10:03:19;27.00;;;9.32;;
28176;SDS011;15461;41.652;9.378;2023-07-20T10:05:57;23.75;;;9.55;;
28176;SDS011;15461;41.652;9.378;2023-07-20T10:08:29;22.00;;;9.02;;
28176;SDS011;15461;41.652;9.378;2023-07-20T10:10:56;26.20;;;9.40;;
28176;SDS011;15461;41.652;9.378;2023-07-20T10:13:26;20.27;;;8.82;;
28176;SDS011;15461;41.652;9.378;2023-07-20T10:15:54;30.73;;;9.13;;
28176;SDS011;15461;41.652;9.378;2023-07-20T10:18:28;22.88;;;9.07;;
28176;SDS011;15461;41.652;9.378;2023-07-20T10:20:55;17.60;;;8.60;;
28176;SDS011;15461;41.652;9.378;2023-07-20T10:23:22;24.13;;;9.23;;
28176;SDS011;15461;41.652;9.378;2023-07-20T10:25:49;25.77;;;9.05;;
28176;SDS011;15461;41.652;9.378;2023-07-20T10:28:15;21.17;;;8.95;;
28176;SDS011;15461;41.652;9.378;2023-07-20T10:30:45;22.42;;;8.60;;
28176;SDS011;15461;41.652;9.378;2023-07-20T10:33:12;26.15;;;9.07;;
28176;SDS011;15461;41.652;9.378;2023-07-20T10:35:58;18.40;;;8.20;;
28176;SDS011;15461;41.652;9.378;2023-07-20T10:41:28;25.42;;;9.45;;
28176;SDS011;15461;41.652;9.378;2023-07-20T10:44:00;30.45;;;9.90;;
28176;SDS011;15461;41.652;9.378;2023-07-20T10:49:05;18.80;;;8.87;;
28176;SDS011;15461;41.652;9.378;2023-07-20T10:51:55;22.08;;;9.07;;
28176;SDS011;15461;41.652;9.378;2023-07-20T10:54:33;20.20;;;8.95;;
28176;SDS011;15461;41.652;9.378;2023-07-20T10:57:21;20.45;;;9.05;;
28176;SDS011;15461;41.652;9.378;2023-07-20T11:00:14;25.65;;;9.10;;
28176;SDS011;15461;41.652;9.378;2023-07-20T11:02:45;29.45;;;9.65;;
28176;SDS011;15461;41.652;9.378;2023-07-20T11:08:03;27.35;;;9.27;;
28176;SDS011;15461;41.652;9.378;2023-07-20T11:10:30;18.23;;;9.32;;
28176;SDS011;15461;41.652;9.378;2023-07-20T11:18:26;29.00;;;10.10;;
28176;SDS011;15461;41.652;9.378;2023-07-20T11:20:53;29.45;;;9.38;;
28176;SDS011;15461;41.652;9.378;2023-07-20T11:23:22;25.10;;;9.57;;
28176;SDS011;15461;41.652;9.378;2023-07-20T11:25:48;20.65;;;8.63;;
28176;SDS011;15461;41.652;9.378;2023-07-20T11:28:15;21.50;;;9.07;;
28176;SDS011;15461;41.652;9.378;2023-07-20T11:30:41;22.98;;;9.63;;
28176;SDS011;15461;41.652;9.378;2023-07-20T11:33:10;19.63;;;8.95;;
28176;SDS011;15461;41.652;9.378;2023-07-20T11:35:42;23.75;;;9.45;;
28176;SDS011;15461;41.652;9.378;2023-07-20T11:38:09;27.00;;;9.57;;
28176;SDS011;15461;41.652;9.378;2023-07-20T11:40:35;23.70;;;9.43;;
28176;SDS011;15461;41.652;9.378;2023-07-20T11:43:01;30.55;;;9.70;;
28176;SDS011;15461;41.652;9.378;2023-07-20T11:45:27;24.08;;;9.65;;
28176;SDS011;15461;41.652;9.378;2023-07-20T11:47:58;24.77;;;9.82;;
28176;SDS011;15461;41.652;9.378;2023-07-20T11:50:24;20.30;;;9.68;;
28176;SDS011;15461;41.652;9.378;2023-07-20T11:52:50;23.73;;;8.68;;
28176;SDS011;15461;41.652;9.378;2023-07-20T11:55:16;22.75;;;9.52;;
28176;SDS011;15461;41.652;9.378;2023-07-20T11:57:57;19.65;;;8.88;;
28176;SDS011;15461;41.652;9.378;2023-07-20T12:00:29;25.42;;;9.25;;
28176;SDS011;15461;41.652;9.378;2023-07-20T12:02:56;23.70;;;9.07;;
28176;SDS011;15461;41.652;9.378;2023-07-20T12:05:22;20.80;;;9.60;;
28176;SDS011;15461;41.652;9.378;2023-07-20T12:07:48;27.15;;;9.30;;
28176;SDS011;15461;41.652;9.378;2023-07-20T12:10:15;24.20;;;9.75;;
28176;SDS011;15461;41.652;9.378;2023-07-20T12:12:42;23.02;;;9.00;;
28176;SDS011;15461;41.652;9.378;2023-07-20T12:15:16;27.40;;;9.35;;
28176;SDS011;15461;41.652;9.378;2023-07-20T12:17:43;27.85;;;9.77;;
28176;SDS011;15461;41.652;9.378;2023-07-20T12:20:10;20.30;;;8.38;;
28176;SDS011;15461;41.652;9.378;2023-07-20T12:22:40;18.95;;;8.45;;
28176;SDS011;15461;41.652;9.378;2023-07-20T12:25:08;30.57;;;10.10;;
28176;SDS011;15461;41.652;9.378;2023-07-20T12:27:37;18.85;;;8.48;;
28176;SDS011;15461;41.652;9.378;2023-07-20T12:30:06;17.70;;;7.95;;
28176;SDS011;15461;41.652;9.378;2023-07-20T12:32:33;24.48;;;8.35;;
28176;SDS011;15461;41.652;9.378;2023-07-20T12:34:59;25.83;;;8.15;;
28176;SDS011;15461;41.652;9.378;2023-07-20T12:37:26;25.45;;;9.10;;
28176;SDS011;15461;41.652;9.378;2023-07-20T12:39:52;24.08;;;8.02;;
28176;SDS011;15461;41.652;9.378;2023-07-20T12:42:18;21.40;;;8.63;;
28176;SDS011;15461;41.652;9.378;2023-07-20T12:44:44;21.38;;;7.93;;
28176;SDS011;15461;41.652;9.378;2023-07-20T12:47:09;22.95;;;8.30;;
28176;SDS011;15461;41.652;9.378;2023-07-20T12:49:35;23.52;;;8.07;;
28176;SDS011;15461;41.652;9.378;2023-07-20T12:52:01;19.70;;;8.40;;
28176;SDS011;15461;41.652;9.378;2023-07-20T12:54:28;19.73;;;8.48;;
28176;SDS011;15461;41.652;9.378;2023-07-20T12:56:54;16.80;;;7.13;;
28176;SDS011;15461;41.652;9.378;2023-07-20T12:59:20;19.95;;;7.68;;
28176;SDS011;15461;41.652;9.378;2023-07-20T13:01:46;21.83;;;8.65;;
28176;SDS011;15461;41.652;9.378;2023-07-20T13:04:13;19.25;;;7.85;;
28176;SDS011;15461;41.652;9.378;2023-07-20T13:06:39;20.17;;;7.60;;
28176;SDS011;15461;41.652;9.378;2023-07-20T13:09:08;22.60;;;7.80;;
28176;SDS011;15461;41.652;9.378;2023-07-20T13:11:34;21.13;;;7.90;;
28176;SDS011;15461;41.652;9.378;2023-07-20T13:14:00;23.33;;;8.10;;
28176;SDS011;15461;41.652;9.378;2023-07-20T13:16:26;19.42;;;7.65;;
28176;SDS011;15461;41.652;9.378;2023-07-20T13:18:52;25.00;;;7.68;;
28176;SDS011;15461;41.652;9.378;2023-07-20T13:21:18;20.88;;;7.70;;
28176;SDS011;15461;41.652;9.378;2023-07-20T13:23:48;18.33;;;7.88;;
28176;SDS011;15461;41.652;9.378;2023-07-20T13:26:14;21.92;;;7.78;;
28176;SDS011;15461;41.652;9.378;2023-07-20T13:28:41;17.02;;;7.75;;
28176;SDS011;15461;41.652;9.378;2023-07-20T13:31:07;24.95;;;7.38;;
28176;SDS011;15461;41.652;9.378;2023-07-20T13:33:35;13.98;;;7.35;;
28176;SDS011;15461;41.652;9.378;2023-07-20T13:36:01;18.70;;;7.57;;
28176;SDS011;15461;41.652;9.378;2023-07-20T13:38:31;21.88;;;7.55;;
28176;SDS011;15461;41.652;9.378;2023-07-20T13:40:57;19.90;;;7.13;;
28176;SDS011;15461;41.652;9.378;2023-07-20T13:43:23;15.25;;;7.00;;
28176;SDS011;15461;41.652;9.378;2023-07-20T13:45:50;14.52;;;7.20;;
28176;SDS011;15461;41.652;9.378;2023-07-20T13:48:16;20.63;;;7.40;;
28176;SDS011;15461;41.652;9.378;2023-07-20T13:50:45;20.10;;;7.30;;
28176;SDS011;15461;41.652;9.378;2023-07-20T13:53:11;21.00;;;7.57;;
28176;SDS011;15461;41.652;9.378;2023-07-20T13:55:38;19.65;;;7.07;;
28176;SDS011;15461;41.652;9.378;2023-07-20T13:58:04;17.88;;;7.15;;
28176;SDS011;15461;41.652;9.378;2023-07-20T14:00:30;18.98;;;7.40;;
28176;SDS011;15461;41.652;9.378;2023-07-20T14:02:58;18.85;;;7.28;;
28176;SDS011;15461;41.652;9.378;2023-07-20T14:05:24;22.48;;;7.72;;
28176;SDS011;15461;41.652;9.378;2023-07-20T14:07:50;18.63;;;7.45;;
28176;SDS011;15461;41.652;9.378;2023-07-20T14:10:16;16.15;;;7.38;;
28176;SDS011;15461;41.652;9.378;2023-07-20T14:12:43;18.75;;;7.13;;
28176;SDS011;15461;41.652;9.378;2023-07-20T14:15:10;19.13;;;7.40;;
28176;SDS011;15461;41.652;9.378;2023-07-20T14:17:36;19.33;;;7.35;;
28176;SDS011;15461;41.652;9.378;2023-07-20T14:20:02;19.13;;;8.15;;
28176;SDS011;15461;41.652;9.378;2023-07-20T14:22:33;16.35;;;7.70;;
28176;SDS011;15461;41.652;9.378;2023-07-20T14:24:59;18.35;;;7.55;;
28176;SDS011;15461;41.652;9.378;2023-07-20T14:27:25;22.67;;;7.70;;
28176;SDS011;15461;41.652;9.378;2023-07-20T14:29:51;21.75;;;7.90;;
28176;SDS011;15461;41.652;9.378;2023-07-20T14:32:18;21.77;;;7.70;;
28176;SDS011;15461;41.652;9.378;2023-07-20T14:34:44;17.13;;;7.43;;
28176;SDS011;15461;41.652;9.378;2023-07-20T14:37:10;24.83;;;8.00;;
28176;SDS011;15461;41.652;9.378;2023-07-20T14:39:37;19.40;;;7.60;;
28176;SDS011;15461;41.652;9.378;2023-07-20T14:42:02;17.73;;;8.00;;
28176;SDS011;15461;41.652;9.378;2023-07-20T14:44:29;22.02;;;7.55;;
28176;SDS011;15461;41.652;9.378;2023-07-20T14:46:55;22.40;;;7.35;;
28176;SDS011;15461;41.652;9.378;2023-07-20T14:49:21;23.88;;;7.68;;
28176;SDS011;15461;41.652;9.378;2023-07-20T14:51:47;15.43;;;7.00;;
28176;SDS011;15461;41.652;9.378;2023-07-20T14:54:13;18.30;;;6.90;;
28176;SDS011;15461;41.652;9.378;2023-07-20T14:56:39;22.23;;;7.15;;
28176;SDS011;15461;41.652;9.378;2023-07-20T14:59:13;21.75;;;7.55;;